Aviation Digital Data Service (ADDS)

Output produced by METARs form (0625 UTC 19 February 2019)
found at http://www.aviationweather.gov/metar/data/
 
Forecast for: WSSS (SINGAPORE/CHANGI, SG)
Text: TAF WSSS 190500Z 1906/2012 07008KT 9999 SCT020
Forecast period: 0600 UTC 19 February 2019 to 1200 UTC 20 February 2019
Forecast type: FROM: standard forecast or significant change
Winds: from the ENE (70 degrees) at 9 MPH (8 knots; 4.1 m/s)
Visibility: 6 or more miles 10+ km)
Ceiling: at least 12,000 feet AGL
Clouds: scattered clouds at 2000 feet AGL
Weather: no significant weather forecast for this period
Text: TEMPO 1907/1910 3000 TSRA FEW012CB BKN015
Forecast period: 0700 to 1000 UTC 19 February 2019
Forecast type: TEMPORARY: The following changes expected for less than half the time period
Visibility: 1.86 miles (2.99 km)
Ceiling: 1500 feet AGL
Clouds: few clouds at 1200 feet AGL
broken clouds at 1500 feet AGL
Weather: TSRA  (rain associated with thunderstorm(s))